^^
Station Historical Data
 
Daily Summary for September 02, 2014 Units:  English    Metric   Both
« Previous Day
Next Day »
Daily Weekly Monthly Yearly Custom
  Current: High: Low: Average:
Temperature: 78.2 °F 78.2 °F 68.2 °F 71.3 °F
Dew Point: 72.0 °F 73.2 °F 68.2 °F 70.3 °F
Humidity: 81% 100% 81% 97%
Wind Speed: 6.4mph 7.2mph 1.9mph 3.8mph
Wind Gust: 10.7mph 12.1mph - -
WindSouth - - South
Pressure: 29.97 in 30.02 in 29.96 in -
Precipitation: 0.00 in      
Historical Graphs
 
 
Tabular Data for September 02, 2014
Time Temperature Dew Point Pressure Wind Wind Speed Wind Gust Humidity Rainfall Rate (Hourly)
00:01 71.2 °F 71.0 °F 30.00 in SW 4.2 mph 5.4 mph 99% 0.00 in
00:02 71.2 °F 71.0 °F 30.00 in SW 4.1 mph 5.4 mph 99% 0.00 in
00:03 71.2 °F 71.0 °F 30.00 in SSW 3.8 mph 5.4 mph 99% 0.00 in
00:08 71.0 °F 70.8 °F 30.00 in West 2.5 mph 3.8 mph 99% 0.00 in
00:13 71.0 °F 70.8 °F 30.00 in WSW 3.7 mph 8.3 mph 99% 0.00 in
00:18 71.0 °F 70.8 °F 30.00 in SSW 4.1 mph 8.3 mph 99% 0.00 in
00:23 70.9 °F 70.6 °F 30.00 in SSW 2.5 mph 5.4 mph 99% 0.00 in
00:28 70.7 °F 70.4 °F 30.00 in SSW 1.9 mph 3.1 mph 99% 0.00 in
00:33 70.5 °F 70.2 °F 30.00 in SSE 1.9 mph 4.5 mph 99% 0.00 in
00:38 70.3 °F 70.4 °F 30.00 in South 2.6 mph 4.5 mph 100% 0.00 in
00:43 70.3 °F 70.4 °F 30.00 in SSW 3.5 mph 4.5 mph 100% 0.00 in
00:48 70.3 °F 70.4 °F 30.00 in SSW 3.7 mph 4.5 mph 100% 0.00 in
00:53 70.3 °F 70.4 °F 30.00 in SSW 4.1 mph 4.5 mph 100% 0.00 in
00:58 70.3 °F 70.4 °F 30.00 in South 4.9 mph 8.3 mph 100% 0.00 in
01:03 70.5 °F 70.5 °F 30.00 in South 4.5 mph 8.3 mph 100% 0.00 in
01:08 70.3 °F 70.4 °F 29.99 in South 3.6 mph 6.0 mph 100% 0.00 in
01:13 70.3 °F 70.4 °F 30.00 in South 3.4 mph 5.4 mph 100% 0.00 in
01:18 70.3 °F 70.4 °F 30.00 in South 3.6 mph 5.4 mph 100% 0.00 in
01:23 70.3 °F 70.4 °F 29.99 in South 4.5 mph 6.0 mph 100% 0.00 in
01:28 70.5 °F 70.5 °F 29.99 in South 5.0 mph 6.0 mph 100% 0.00 in
01:33 70.5 °F 70.5 °F 30.00 in South 4.1 mph 6.0 mph 100% 0.00 in
01:38 70.5 °F 70.2 °F 30.00 in South 3.9 mph 7.6 mph 99% 0.00 in
01:43 70.5 °F 70.2 °F 29.99 in South 4.7 mph 7.6 mph 99% 0.00 in
01:48 70.5 °F 70.2 °F 29.99 in SSE 5.3 mph 6.9 mph 99% 0.00 in
01:53 70.5 °F 70.2 °F 29.99 in South 5.1 mph 6.9 mph 99% 0.00 in
01:58 70.5 °F 70.2 °F 29.99 in South 4.9 mph 6.9 mph 99% 0.00 in
02:03 70.5 °F 70.2 °F 29.99 in South 3.8 mph 6.9 mph 99% 0.00 in
02:08 70.5 °F 70.2 °F 29.99 in South 2.3 mph 3.8 mph 99% 0.00 in
02:13 70.3 °F 70.1 °F 29.99 in South 2.3 mph 3.1 mph 99% 0.00 in
02:18 70.1 °F 69.9 °F 29.99 in SSW 2.2 mph 3.1 mph 99% 0.00 in
02:23 70.1 °F 70.2 °F 29.99 in South 1.9 mph 3.1 mph 100% 0.00 in
02:28 70.0 °F 70.0 °F 29.99 in South 2.3 mph 5.4 mph 100% 0.00 in
02:33 70.0 °F 70.0 °F 29.99 in South 3.2 mph 5.4 mph 100% 0.00 in
02:38 69.8 °F 69.8 °F 29.99 in South 2.9 mph 5.4 mph 100% 0.00 in
02:43 69.8 °F 69.8 °F 29.99 in South 2.7 mph 5.4 mph 100% 0.00 in
02:48 69.8 °F 69.8 °F 29.99 in SSW 3.4 mph 5.4 mph 100% 0.00 in
02:53 69.8 °F 69.8 °F 29.99 in SW 3.2 mph 5.4 mph 100% 0.00 in
02:58 69.6 °F 69.6 °F 29.98 in South 3.0 mph 6.0 mph 100% 0.00 in
03:03 69.6 °F 69.6 °F 29.99 in South 2.8 mph 6.0 mph 100% 0.00 in
03:08 69.4 °F 69.5 °F 29.98 in South 2.3 mph 3.8 mph 100% 0.00 in
03:13 69.2 °F 69.3 °F 29.98 in South 2.7 mph 4.5 mph 100% 0.00 in
03:18 69.2 °F 69.3 °F 29.98 in South 2.8 mph 4.5 mph 100% 0.00 in
03:23 69.1 °F 69.1 °F 29.98 in South 2.7 mph 4.5 mph 100% 0.00 in
03:28 69.1 °F 69.1 °F 29.98 in South 3.2 mph 5.4 mph 100% 0.00 in
03:33 68.9 °F 68.9 °F 29.98 in SSW 2.7 mph 5.4 mph 100% 0.00 in
03:38 68.7 °F 68.7 °F 29.98 in SSW 2.3 mph 5.4 mph 100% 0.00 in
03:43 68.7 °F 68.7 °F 29.98 in South 3.5 mph 5.4 mph 100% 0.00 in
03:48 68.7 °F 68.7 °F 29.98 in South 3.8 mph 5.4 mph 100% 0.00 in
03:54 68.9 °F 68.9 °F 29.98 in South 3.4 mph 5.4 mph 100% 0.00 in
03:59 68.9 °F 68.9 °F 29.98 in SSE 3.5 mph 5.4 mph 100% 0.00 in
04:04 68.9 °F 68.9 °F 29.98 in South 2.8 mph 4.5 mph 100% 0.00 in
04:09 68.7 °F 68.7 °F 29.98 in South 2.5 mph 4.5 mph 100% 0.00 in
04:14 68.5 °F 68.6 °F 29.97 in SSW 2.3 mph 4.5 mph 100% 0.00 in
04:19 68.5 °F 68.6 °F 29.97 in SSW 2.6 mph 4.5 mph 100% 0.00 in
04:24 68.5 °F 68.6 °F 29.98 in South 2.7 mph 4.5 mph 100% 0.00 in
04:29 68.5 °F 68.6 °F 29.98 in South 2.4 mph 4.5 mph 100% 0.00 in
04:34 68.5 °F 68.6 °F 29.97 in South 2.8 mph 4.5 mph 100% 0.00 in
04:39 68.5 °F 68.6 °F 29.98 in South 2.4 mph 3.8 mph 100% 0.00 in
04:44 68.5 °F 68.6 °F 29.97 in South 2.5 mph 4.5 mph 100% 0.00 in
04:49 68.5 °F 68.6 °F 29.98 in South 3.4 mph 4.5 mph 100% 0.00 in
04:54 68.7 °F 68.7 °F 29.98 in South 3.2 mph 4.5 mph 100% 0.00 in
04:59 68.7 °F 68.7 °F 29.99 in SSW 2.9 mph 4.5 mph 100% 0.00 in
05:04 68.7 °F 68.7 °F 29.98 in South 2.3 mph 4.5 mph 100% 0.00 in
05:09 68.9 °F 68.9 °F 29.98 in SE 2.1 mph 4.5 mph 100% 0.00 in
05:14 68.9 °F 68.9 °F 29.99 in SSE 3.0 mph 4.5 mph 100% 0.00 in
05:19 68.9 °F 68.9 °F 29.99 in South 4.0 mph 6.0 mph 100% 0.00 in
05:24 68.9 °F 68.9 °F 29.99 in South 4.5 mph 6.0 mph 100% 0.00 in
05:29 68.9 °F 68.9 °F 29.99 in South 4.2 mph 6.0 mph 100% 0.00 in
05:34 69.1 °F 69.1 °F 29.99 in South 4.0 mph 8.3 mph 100% 0.00 in
05:39 68.9 °F 68.9 °F 29.99 in South 3.6 mph 8.3 mph 100% 0.00 in
05:44 69.1 °F 69.1 °F 29.99 in South 3.8 mph 6.0 mph 100% 0.00 in
05:49 69.1 °F 69.1 °F 30.00 in South 3.6 mph 6.0 mph 100% 0.00 in
05:54 68.9 °F 68.9 °F 30.00 in SSW 3.5 mph 5.4 mph 100% 0.00 in
05:59 69.1 °F 69.1 °F 30.00 in SSW 3.2 mph 5.4 mph 100% 0.00 in
06:04 69.1 °F 69.1 °F 30.00 in SW 2.2 mph 5.4 mph 100% 0.00 in
06:09 68.9 °F 68.9 °F 30.00 in WSW 2.4 mph 3.8 mph 100% 0.00 in
06:14 68.9 °F 68.9 °F 30.00 in SSW 3.2 mph 6.0 mph 100% 0.00 in
06:19 68.9 °F 68.9 °F 30.00 in South 3.7 mph 6.0 mph 100% 0.00 in
06:24 68.9 °F 68.9 °F 30.00 in South 3.8 mph 5.4 mph 100% 0.00 in
06:29 68.9 °F 68.9 °F 30.00 in South 3.2 mph 5.4 mph 100% 0.00 in
06:34 68.7 °F 68.7 °F 30.00 in SSW 2.4 mph 4.5 mph 100% 0.00 in
06:39 68.7 °F 68.7 °F 30.00 in SSW 2.7 mph 4.5 mph 100% 0.00 in
06:44 68.5 °F 68.6 °F 30.00 in SSE 2.7 mph 4.5 mph 100% 0.00 in
06:49 68.5 °F 68.6 °F 30.00 in South 3.1 mph 5.4 mph 100% 0.00 in
06:54 68.5 °F 68.6 °F 30.01 in South 3.3 mph 5.4 mph 100% 0.00 in
06:59 68.3 °F 68.4 °F 30.01 in South 3.0 mph 3.8 mph 100% 0.00 in
07:04 68.3 °F 68.4 °F 30.01 in South 3.1 mph 3.8 mph 100% 0.00 in
07:09 68.2 °F 68.2 °F 30.01 in South 3.1 mph 3.8 mph 100% 0.00 in
07:14 68.2 °F 68.2 °F 30.01 in South 3.1 mph 4.5 mph 100% 0.00 in
07:19 68.2 °F 68.2 °F 30.01 in South 3.0 mph 4.5 mph 100% 0.00 in
07:24 68.2 °F 68.2 °F 30.01 in South 2.8 mph 5.4 mph 100% 0.00 in
07:29 68.2 °F 68.2 °F 30.01 in South 2.9 mph 5.4 mph 100% 0.00 in
07:34 68.2 °F 68.2 °F 30.01 in South 2.9 mph 5.4 mph 100% 0.00 in
07:39 68.3 °F 68.4 °F 30.00 in South 3.0 mph 4.5 mph 100% 0.00 in
07:44 68.3 °F 68.4 °F 30.01 in South 3.5 mph 4.5 mph 100% 0.00 in
07:49 68.5 °F 68.6 °F 30.01 in South 3.7 mph 4.5 mph 100% 0.00 in
07:54 68.7 °F 68.7 °F 30.01 in South 3.7 mph 5.4 mph 100% 0.00 in
07:59 68.9 °F 68.9 °F 30.01 in South 3.9 mph 5.4 mph 100% 0.00 in
08:04 68.9 °F 68.9 °F 30.01 in South 4.2 mph 5.4 mph 100% 0.00 in
08:09 69.2 °F 69.3 °F 30.01 in South 4.4 mph 4.5 mph 100% 0.00 in
08:14 69.8 °F 69.8 °F 30.02 in South 4.7 mph 7.6 mph 100% 0.00 in
08:19 70.0 °F 70.0 °F 30.01 in South 5.0 mph 7.6 mph 100% 0.00 in
08:24 70.3 °F 70.4 °F 30.02 in South 4.1 mph 6.0 mph 100% 0.00 in
08:29 70.7 °F 70.7 °F 30.02 in South 4.2 mph 9.2 mph 100% 0.00 in
08:34 70.9 °F 70.9 °F 30.02 in South 6.1 mph 9.2 mph 100% 0.00 in
08:40 70.9 °F 70.9 °F 30.02 in South 6.5 mph 9.2 mph 100% 0.00 in
08:45 71.0 °F 71.1 °F 30.02 in SSW 5.4 mph 7.6 mph 100% 0.00 in
08:50 71.0 °F 71.1 °F 30.02 in SW 4.7 mph 7.6 mph 100% 0.00 in
08:55 71.2 °F 71.3 °F 30.02 in South 3.9 mph 5.4 mph 100% 0.00 in
09:00 71.4 °F 71.4 °F 30.02 in South 3.7 mph 6.9 mph 100% 0.00 in
09:05 71.4 °F 71.4 °F 30.01 in South 3.1 mph 6.9 mph 100% 0.00 in
09:10 72.7 °F 72.7 °F 30.02 in NNW 2.8 mph 6.9 mph 100% 0.00 in
09:15 73.0 °F 72.5 °F 30.01 in SSW 4.9 mph 7.6 mph 98% 0.00 in
09:20 73.2 °F 72.3 °F 30.01 in South 5.8 mph 7.6 mph 97% 0.00 in
09:25 73.6 °F 72.4 °F 30.01 in South 5.9 mph 8.3 mph 96% 0.00 in
09:30 74.1 °F 72.6 °F 30.02 in South 6.3 mph 8.3 mph 95% 0.00 in
09:35 74.6 °F 73.2 °F 30.02 in SSE 5.0 mph 6.9 mph 95% 0.00 in
09:40 75.0 °F 72.9 °F 30.02 in SSE 4.8 mph 6.9 mph 93% 0.00 in
09:45 75.2 °F 72.4 °F 30.02 in South 5.5 mph 6.9 mph 91% 0.00 in
09:50 75.2 °F 72.1 °F 30.02 in SSE 5.3 mph 7.6 mph 90% 0.00 in
09:55 75.5 °F 72.4 °F 30.01 in SSE 5.6 mph 9.2 mph 90% 0.00 in
10:00 75.7 °F 72.6 °F 30.00 in South 5.7 mph 9.2 mph 90% 0.00 in
10:05 75.7 °F 72.6 °F 30.01 in SSE 4.1 mph 7.6 mph 90% 0.00 in
10:10 75.9 °F 72.5 °F 30.00 in SSE 4.1 mph 7.6 mph 89% 0.00 in
10:15 76.3 °F 72.8 °F 30.00 in SSE 5.6 mph 7.6 mph 89% 0.00 in
10:20 76.4 °F 71.6 °F 30.00 in SSE 6.9 mph 9.8 mph 85% 0.00 in
10:25 76.4 °F 72.3 °F 30.00 in South 6.7 mph 11.4 mph 87% 0.00 in
10:30 77.2 °F 72.0 °F 30.00 in South 6.3 mph 11.4 mph 84% 0.00 in
10:35 77.2 °F 72.0 °F 30.00 in SSW 7.2 mph 10.7 mph 84% 0.00 in
10:40 77.7 °F 72.9 °F 30.00 in South 5.7 mph 10.7 mph 85% 0.00 in
10:45 77.5 °F 72.4 °F 30.00 in SSE 4.1 mph 6.9 mph 84% 0.00 in
10:50 77.0 °F 71.8 °F 30.00 in SSE 4.4 mph 7.6 mph 84% 0.00 in
10:55 76.6 °F 72.2 °F 30.00 in SSE 3.2 mph 7.6 mph 86% 0.00 in
11:00 76.4 °F 72.3 °F 30.00 in SSE 2.2 mph 3.1 mph 87% 0.00 in
11:05 75.9 °F 71.8 °F 30.00 in SSE 2.2 mph 5.4 mph 87% 0.00 in
11:10 75.7 °F 72.0 °F 30.00 in SSE 3.7 mph 7.6 mph 88% 0.00 in
11:15 75.7 °F 72.0 °F 29.99 in SSE 4.0 mph 7.6 mph 88% 0.00 in
11:20 75.7 °F 72.0 °F 29.99 in South 3.7 mph 6.0 mph 88% 0.00 in
11:25 75.9 °F 71.8 °F 29.99 in South 4.3 mph 6.9 mph 87% 0.00 in
11:30 75.9 °F 71.8 °F 29.99 in SSE 4.8 mph 7.6 mph 87% 0.00 in
11:35 75.9 °F 71.8 °F 29.98 in SSE 6.5 mph 7.6 mph 87% 0.00 in
11:40 75.7 °F 71.6 °F 29.99 in SE 6.2 mph 7.6 mph 87% 0.00 in
11:45 76.1 °F 72.3 °F 29.98 in SSE 4.3 mph 7.6 mph 88% 0.00 in
11:50 76.3 °F 72.5 °F 29.98 in SW 4.2 mph 6.9 mph 88% 0.00 in
11:55 76.3 °F 72.2 °F 29.98 in WSW 4.1 mph 6.9 mph 87% 0.00 in
12:00 76.4 °F 72.0 °F 29.98 in South 4.4 mph 7.6 mph 86% 0.00 in
12:05 76.4 °F 72.3 °F 29.98 in South 4.5 mph 7.6 mph 87% 0.00 in
12:10 76.4 °F 72.0 °F 29.98 in South 5.5 mph 12.1 mph 86% 0.00 in
12:15 76.4 °F 72.3 °F 29.98 in South 6.5 mph 12.1 mph 87% 0.00 in
12:20 77.2 °F 72.7 °F 29.98 in South 5.3 mph 6.9 mph 86% 0.00 in
12:25 77.9 °F 72.4 °F 29.97 in South 5.8 mph 10.7 mph 83% 0.00 in
12:30 78.1 °F 72.2 °F 29.96 in South 6.7 mph 10.7 mph 82% 0.00 in
12:35 78.2 °F 72.0 °F 29.97 in South 6.4 mph 10.7 mph 81% 0.00 in
Export, Pennsylvania, USA
Compliments of Weather Underground